createdAt,value
2022-12-17T00:00:13.906Z,33.20
2022-12-17T00:02:59.229Z,35.07
2022-12-17T00:05:44.245Z,34.73
2022-12-17T00:08:30.609Z,35.13
2022-12-17T00:11:17.380Z,33.43
2022-12-17T00:14:02.084Z,36.93
2022-12-17T00:16:57.630Z,36.37
2022-12-17T00:19:42.295Z,35.43
2022-12-17T00:22:26.888Z,35.63
2022-12-17T00:25:11.636Z,35.37
2022-12-17T00:27:56.487Z,36.37
2022-12-17T00:30:41.587Z,37.10
2022-12-17T00:33:26.492Z,34.30
2022-12-17T00:36:12.484Z,36.20
2022-12-17T00:38:58.179Z,34.63
2022-12-17T00:41:44.867Z,36.27
2022-12-17T00:44:29.871Z,35.73
2022-12-17T00:47:14.896Z,36.93
2022-12-17T00:49:59.866Z,37.20
2022-12-17T00:52:44.923Z,35.17
2022-12-17T00:55:29.627Z,36.37
2022-12-17T00:58:15.898Z,34.10
2022-12-17T01:01:12.385Z,36.90
2022-12-17T01:03:57.194Z,34.43
2022-12-17T01:06:41.866Z,34.90
2022-12-17T01:09:26.584Z,35.93
2022-12-17T01:12:11.492Z,34.77
2022-12-17T01:14:57.169Z,33.50
2022-12-17T01:17:42.099Z,33.70
2022-12-17T01:20:26.960Z,31.60
2022-12-17T01:23:11.744Z,34.60
2022-12-17T01:25:56.494Z,36.30
2022-12-17T01:28:45.082Z,34.63
2022-12-17T01:31:34.613Z,33.63
2022-12-17T01:34:20.358Z,37.63
2022-12-17T01:37:05.657Z,34.10
2022-12-17T01:39:50.404Z,32.10
2022-12-17T01:42:35.070Z,31.80
2022-12-17T01:45:21.227Z,29.40
2022-12-17T01:48:11.597Z,29.57
2022-12-17T01:51:00.880Z,29.43
2022-12-17T01:53:53.299Z,30.67
2022-12-17T01:56:38.149Z,29.03
2022-12-17T01:59:26.197Z,29.47
2022-12-17T02:02:11.324Z,31.07
2022-12-17T02:04:57.459Z,28.57
2022-12-17T02:07:48.468Z,26.87
2022-12-17T02:10:41.641Z,29.33
2022-12-17T02:13:34.617Z,29.43
2022-12-17T02:16:27.828Z,28.17
2022-12-17T02:19:25.435Z,27.00
2022-12-17T02:22:15.914Z,25.43
2022-12-17T02:25:14.172Z,27.77
2022-12-17T02:27:59.786Z,27.83
2022-12-17T02:30:45.005Z,24.83
2022-12-17T02:33:30.570Z,25.83
2022-12-17T02:36:24.646Z,24.97
2022-12-17T02:39:10.520Z,26.37
2022-12-17T02:42:05.196Z,23.97
2022-12-17T02:44:52.453Z,24.43
2022-12-17T02:47:38.968Z,25.30
2022-12-17T02:50:25.164Z,26.80
2022-12-17T02:53:12.054Z,26.30
2022-12-17T02:55:56.784Z,25.80
2022-12-17T02:58:41.817Z,25.07
2022-12-17T03:01:27.281Z,23.53
2022-12-17T03:04:13.160Z,25.00
2022-12-17T03:06:57.811Z,26.97
2022-12-17T03:09:42.582Z,26.77
2022-12-17T03:12:27.629Z,25.37
2022-12-17T03:15:12.436Z,24.33
2022-12-17T03:17:57.108Z,26.80
2022-12-17T03:20:41.855Z,24.93
2022-12-17T03:23:29.245Z,23.73
2022-12-17T03:26:19.751Z,25.70
2022-12-17T03:29:04.824Z,22.20
2022-12-17T03:31:51.071Z,22.20
2022-12-17T03:34:36.369Z,21.80
2022-12-17T03:37:21.094Z,23.80
2022-12-17T03:40:05.746Z,24.67
2022-12-17T03:42:50.621Z,22.87
2022-12-17T03:45:35.466Z,24.17
2022-12-17T03:48:23.639Z,22.90
2022-12-17T03:51:10.282Z,23.53
2022-12-17T03:53:55.139Z,23.27
2022-12-17T03:56:39.967Z,22.37
2022-12-17T03:59:24.746Z,22.90
2022-12-17T04:02:09.659Z,22.80
2022-12-17T04:04:54.714Z,25.47
2022-12-17T04:07:39.434Z,23.70
2022-12-17T04:10:24.695Z,22.57
2022-12-17T04:13:09.864Z,22.13
2022-12-17T04:15:54.680Z,22.27
2022-12-17T04:18:39.808Z,21.73
2022-12-17T04:21:24.421Z,20.97
2022-12-17T04:24:09.706Z,21.87
2022-12-17T04:26:54.528Z,22.23
2022-12-17T04:29:41.454Z,22.37
2022-12-17T04:32:27.545Z,22.10
2022-12-17T04:35:15.084Z,20.70
2022-12-17T04:38:00.006Z,21.50
2022-12-17T04:40:44.673Z,22.20
2022-12-17T04:43:31.806Z,22.47
2022-12-17T04:46:16.972Z,21.53
2022-12-17T04:49:02.086Z,21.80
2022-12-17T04:51:46.740Z,22.07
2022-12-17T04:54:31.420Z,23.53
2022-12-17T04:57:16.248Z,20.10
2022-12-17T05:00:00.897Z,21.27
2022-12-17T05:02:45.744Z,26.27
2022-12-17T05:05:30.789Z,25.40
2022-12-17T05:08:15.835Z,25.17
2022-12-17T05:11:01.697Z,23.67
2022-12-17T05:13:46.362Z,22.13
2022-12-17T05:16:31.638Z,23.63
2022-12-17T05:19:27.525Z,23.60
2022-12-17T05:22:12.274Z,22.20
2022-12-17T05:24:57.082Z,24.53
2022-12-17T05:27:49.509Z,24.10
2022-12-17T05:30:34.208Z,21.83
2022-12-17T05:33:20.474Z,23.73
2022-12-17T05:36:12.777Z,24.07
2022-12-17T05:38:57.482Z,24.27
2022-12-17T05:41:42.245Z,23.00
2022-12-17T05:44:27.001Z,24.53
2022-12-17T05:47:11.687Z,23.63
2022-12-17T05:49:56.585Z,24.63
2022-12-17T05:52:41.715Z,24.10
2022-12-17T05:55:26.879Z,23.23
2022-12-17T05:58:19.583Z,24.47
2022-12-17T06:01:04.342Z,24.50
2022-12-17T06:03:49.035Z,24.53
2022-12-17T06:06:34.023Z,27.87
2022-12-17T06:09:19.454Z,23.33
2022-12-17T06:12:04.204Z,26.77
2022-12-17T06:14:48.988Z,28.33
2022-12-17T06:17:33.653Z,24.67
2022-12-17T06:20:18.526Z,24.60
2022-12-17T06:23:03.288Z,24.93
2022-12-17T06:25:48.078Z,22.10
2022-12-17T06:28:32.727Z,25.37
2022-12-17T06:31:17.512Z,23.53
2022-12-17T06:34:02.571Z,25.13
2022-12-17T06:36:47.220Z,24.47
2022-12-17T06:39:31.923Z,23.73
2022-12-17T06:42:16.775Z,22.03
2022-12-17T06:45:01.507Z,24.17
2022-12-17T06:47:46.101Z,22.73
2022-12-17T06:50:30.882Z,22.37
2022-12-17T06:53:20.663Z,23.53
2022-12-17T06:56:05.352Z,23.13
2022-12-17T06:58:50.159Z,24.83
2022-12-17T07:01:34.934Z,21.57
2022-12-17T07:04:20.118Z,23.80
2022-12-17T07:07:04.884Z,23.90
2022-12-17T07:09:49.725Z,24.13
2022-12-17T07:12:34.304Z,23.23
2022-12-17T07:15:19.024Z,23.13
2022-12-17T07:18:14.842Z,21.93
2022-12-17T07:20:59.649Z,21.57
2022-12-17T07:23:44.376Z,23.20
2022-12-17T07:26:29.069Z,21.80
2022-12-17T07:29:13.795Z,21.00
2022-12-17T07:31:58.719Z,22.07
2022-12-17T07:34:43.528Z,24.67
2022-12-17T07:37:28.251Z,22.80
2022-12-17T07:40:13.014Z,23.53
2022-12-17T07:43:00.588Z,22.43
2022-12-17T07:45:45.386Z,22.73
2022-12-17T07:48:30.568Z,22.57
2022-12-17T07:51:15.885Z,21.27
2022-12-17T07:54:02.011Z,22.77
2022-12-17T07:56:46.665Z,23.47
2022-12-17T07:59:31.415Z,22.17
2022-12-17T08:02:16.327Z,23.10
2022-12-17T08:05:01.492Z,22.87
2022-12-17T08:07:46.360Z,22.63
2022-12-17T08:10:31.256Z,23.87
2022-12-17T08:13:22.558Z,24.53
2022-12-17T08:16:07.921Z,22.97
2022-12-17T08:18:52.911Z,23.93
2022-12-17T08:21:37.694Z,22.43
2022-12-17T08:24:22.978Z,22.43
2022-12-17T08:27:08.257Z,22.57
2022-12-17T08:29:52.905Z,24.23
2022-12-17T08:32:37.652Z,22.97
2022-12-17T08:35:22.835Z,22.03
2022-12-17T08:38:07.586Z,21.33
2022-12-17T08:40:52.261Z,22.03
2022-12-17T08:43:37.262Z,23.73
2022-12-17T08:46:42.510Z,23.20
2022-12-17T08:49:27.380Z,23.33
2022-12-17T08:52:12.154Z,24.30
2022-12-17T08:54:57.077Z,22.63
2022-12-17T08:57:41.760Z,22.50
2022-12-17T09:00:27.545Z,25.03
2022-12-17T09:03:16.815Z,22.20
2022-12-17T09:06:02.076Z,22.67
2022-12-17T09:08:46.822Z,23.47
2022-12-17T09:11:32.150Z,23.80
2022-12-17T09:14:16.902Z,23.57
2022-12-17T09:17:01.681Z,23.07
2022-12-17T09:19:46.898Z,22.10
2022-12-17T09:22:31.720Z,22.87
2022-12-17T09:25:16.449Z,24.77
2022-12-17T09:28:01.693Z,23.30
2022-12-17T09:30:46.464Z,24.80
2022-12-17T09:33:36.112Z,25.47
2022-12-17T09:36:23.047Z,23.33
2022-12-17T09:39:08.247Z,23.60
2022-12-17T09:42:06.392Z,23.87
2022-12-17T09:44:57.249Z,23.27
2022-12-17T09:47:53.622Z,23.37
2022-12-17T09:50:39.002Z,21.87
2022-12-17T09:53:36.189Z,21.83
2022-12-17T09:56:22.451Z,22.37
2022-12-17T09:59:07.164Z,23.37
2022-12-17T10:01:53.627Z,22.87
2022-12-17T10:04:53.919Z,24.73
2022-12-17T10:07:42.686Z,24.13
2022-12-17T10:10:39.223Z,24.33
2022-12-17T10:13:36.696Z,23.33
2022-12-17T10:16:48.205Z,23.63
2022-12-17T10:19:40.744Z,21.97
2022-12-17T10:22:32.143Z,23.80
2022-12-17T10:25:21.592Z,22.53
2022-12-17T10:28:06.305Z,21.37
2022-12-17T10:30:51.704Z,20.53
2022-12-17T10:33:39.378Z,20.83
2022-12-17T10:36:38.893Z,18.77
2022-12-17T10:39:25.212Z,19.03
2022-12-17T10:42:09.912Z,18.53
2022-12-17T10:44:56.137Z,19.97
2022-12-17T10:47:46.196Z,20.60
2022-12-17T10:50:37.050Z,21.03
2022-12-17T10:53:34.092Z,22.50
2022-12-17T10:56:27.291Z,21.87
2022-12-17T10:59:13.066Z,24.27
2022-12-17T11:02:00.248Z,22.30
2022-12-17T11:04:50.799Z,22.13
2022-12-17T11:07:44.077Z,22.07
2022-12-17T11:10:36.822Z,19.63
2022-12-17T11:13:27.517Z,20.47
2022-12-17T11:16:15.720Z,22.27
2022-12-17T11:19:21.163Z,18.57
2022-12-17T11:22:09.075Z,22.73
2022-12-17T11:25:02.535Z,20.77
2022-12-17T11:27:52.859Z,20.17
2022-12-17T11:30:38.171Z,21.13
2022-12-17T11:34:01.769Z,21.23
2022-12-17T11:36:59.193Z,21.13
2022-12-17T11:40:02.679Z,21.47
2022-12-17T11:42:55.533Z,20.10
2022-12-17T11:45:55.825Z,20.03
2022-12-17T11:48:52.900Z,20.67
2022-12-17T11:51:48.852Z,19.73
2022-12-17T11:54:43.240Z,21.13
2022-12-17T11:57:42.528Z,20.13
2022-12-17T12:00:41.512Z,20.73
2022-12-17T12:03:45.307Z,22.97
2022-12-17T12:06:40.633Z,20.77
2022-12-17T12:09:49.210Z,22.13
2022-12-17T12:12:39.012Z,22.17
2022-12-17T12:15:32.839Z,21.67
2022-12-17T12:18:45.046Z,22.30
2022-12-17T12:21:39.927Z,20.73
2022-12-17T12:25:08.516Z,20.97
2022-12-17T12:28:29.444Z,21.07
2022-12-17T12:31:35.656Z,23.07
2022-12-17T12:34:25.394Z,21.37
2022-12-17T12:37:11.634Z,20.00
2022-12-17T12:40:02.955Z,22.73
2022-12-17T12:42:57.163Z,21.27
2022-12-17T12:45:54.050Z,21.30
2022-12-17T12:48:50.864Z,21.20
2022-12-17T12:51:41.216Z,21.87
2022-12-17T12:55:04.614Z,22.83
2022-12-17T12:57:55.089Z,22.17
2022-12-17T13:00:47.994Z,20.97
2022-12-17T13:03:45.356Z,23.47
2022-12-17T13:06:42.729Z,21.90
2022-12-17T13:09:15.125Z,23.53
2022-12-17T13:11:43.860Z,22.70
2022-12-17T13:14:16.290Z,22.93
2022-12-17T13:16:48.544Z,22.87
2022-12-17T13:19:31.646Z,22.47
2022-12-17T13:22:12.333Z,24.67
2022-12-17T13:24:38.650Z,24.40
2022-12-17T13:27:05.214Z,22.07
2022-12-17T13:29:34.563Z,24.00
2022-12-17T13:32:01.021Z,24.47
2022-12-17T13:34:45.353Z,25.03
2022-12-17T13:37:31.913Z,23.57
2022-12-17T13:40:22.599Z,24.07
2022-12-17T13:42:49.108Z,23.23
2022-12-17T13:45:17.124Z,24.43
2022-12-17T13:47:43.493Z,24.13
2022-12-17T13:50:38.862Z,24.37
2022-12-17T13:53:10.324Z,24.67
2022-12-17T13:55:37.927Z,25.37
2022-12-17T13:58:04.232Z,27.43
2022-12-17T14:00:32.316Z,26.10
2022-12-17T14:03:10.479Z,26.57
2022-12-17T14:05:42.181Z,26.07
2022-12-17T14:08:09.235Z,27.90
2022-12-17T14:10:37.794Z,28.33
2022-12-17T14:13:08.568Z,27.77
2022-12-17T14:15:35.154Z,28.90
2022-12-17T14:18:02.810Z,27.50
2022-12-17T14:20:31.022Z,27.87
2022-12-17T14:23:03.061Z,27.70
2022-12-17T14:25:35.764Z,27.53
2022-12-17T14:28:21.010Z,28.13
2022-12-17T14:31:24.521Z,26.17
2022-12-17T14:33:36.741Z,28.70
2022-12-17T14:36:25.779Z,29.03
2022-12-17T14:39:16.540Z,28.13
2022-12-17T14:42:01.202Z,25.17
2022-12-17T14:44:29.557Z,27.43
2022-12-17T14:47:21.986Z,25.23
2022-12-17T14:49:59.149Z,27.57
2022-12-17T14:52:43.835Z,26.43
2022-12-17T14:55:27.119Z,27.13
2022-12-17T14:58:05.689Z,27.93
2022-12-17T15:00:32.196Z,25.97
2022-12-17T15:02:58.639Z,27.20
2022-12-17T15:05:25.220Z,27.23
2022-12-17T15:07:51.854Z,25.70
2022-12-17T15:10:20.120Z,27.60
2022-12-17T15:12:47.737Z,28.27
2022-12-17T15:15:15.630Z,28.43
2022-12-17T15:17:42.164Z,27.43
2022-12-17T15:20:19.040Z,26.60
2022-12-17T15:22:46.434Z,27.37
2022-12-17T15:25:14.874Z,26.33
2022-12-17T15:27:41.530Z,28.67
2022-12-17T15:30:13.130Z,28.83
2022-12-17T15:32:39.968Z,28.20
2022-12-17T15:35:07.131Z,27.13
2022-12-17T15:37:33.470Z,29.43
2022-12-17T15:39:59.819Z,29.13
2022-12-17T15:42:44.721Z,28.47
2022-12-17T15:45:12.324Z,27.73
2022-12-17T15:47:38.649Z,30.13
2022-12-17T15:50:05.373Z,28.50
2022-12-17T15:52:31.738Z,30.93
2022-12-17T15:54:58.107Z,27.27
2022-12-17T15:57:24.716Z,29.33
2022-12-17T15:59:52.029Z,27.93
2022-12-17T16:02:18.691Z,29.47
2022-12-17T16:04:45.352Z,29.57
2022-12-17T16:07:11.690Z,31.17
2022-12-17T16:09:37.987Z,30.27
2022-12-17T16:12:04.545Z,30.93
2022-12-17T16:14:30.919Z,30.93
2022-12-17T16:16:57.236Z,29.93
2022-12-17T16:19:23.568Z,28.43
2022-12-17T16:21:50.031Z,26.77
2022-12-17T16:24:16.418Z,27.27
2022-12-17T16:26:42.754Z,29.07
2022-12-17T16:29:09.091Z,29.10
2022-12-17T16:31:35.570Z,30.63
2022-12-17T16:34:02.100Z,28.40
2022-12-17T16:36:28.647Z,28.60
2022-12-17T16:38:55.005Z,29.03
2022-12-17T16:41:22.141Z,29.17
2022-12-17T16:43:48.744Z,27.43
2022-12-17T16:46:36.093Z,26.33
2022-12-17T16:49:06.634Z,25.23
2022-12-17T16:51:33.920Z,29.43
2022-12-17T16:54:08.299Z,30.77
2022-12-17T16:56:40.033Z,27.83
2022-12-17T16:59:09.926Z,30.13
2022-12-17T17:01:37.425Z,30.20
2022-12-17T17:04:05.683Z,31.07
2022-12-17T17:06:34.100Z,31.17
2022-12-17T17:09:04.411Z,30.90
2022-12-17T17:11:31.100Z,32.83
2022-12-17T17:13:57.699Z,30.57
2022-12-17T17:16:25.006Z,31.47
2022-12-17T17:18:52.919Z,30.50
2022-12-17T17:21:19.195Z,29.50
2022-12-17T17:23:50.890Z,31.23
2022-12-17T17:26:17.647Z,33.90
2022-12-17T17:28:45.504Z,30.10
2022-12-17T17:31:13.821Z,31.47
2022-12-17T17:33:46.595Z,30.67
2022-12-17T17:36:25.285Z,31.30
2022-12-17T17:38:53.809Z,30.73
2022-12-17T17:41:23.262Z,29.33
2022-12-17T17:43:58.512Z,29.10
2022-12-17T17:46:26.425Z,28.13
2022-12-17T17:48:57.011Z,31.20
2022-12-17T17:51:59.779Z,30.90
2022-12-17T17:54:14.501Z,31.50
2022-12-17T17:56:42.668Z,31.33
2022-12-17T17:59:11.934Z,30.43
2022-12-17T18:01:42.061Z,31.50
2022-12-17T18:04:15.934Z,30.80
2022-12-17T18:07:02.615Z,28.17
2022-12-17T18:09:30.091Z,32.67
2022-12-17T18:11:56.695Z,33.57
2022-12-17T18:14:23.091Z,34.10
2022-12-17T18:16:49.465Z,31.67
2022-12-17T18:19:20.785Z,31.30
2022-12-17T18:21:48.095Z,32.20
2022-12-17T18:24:16.007Z,32.00
2022-12-17T18:26:43.918Z,27.83
2022-12-17T18:29:12.232Z,30.60
2022-12-17T18:31:39.031Z,28.47
2022-12-17T18:34:06.406Z,31.83
2022-12-17T18:36:37.182Z,29.70
2022-12-17T18:39:10.626Z,28.37
2022-12-17T18:41:56.262Z,33.07
2022-12-17T18:44:23.123Z,28.00
2022-12-17T18:46:49.779Z,31.57
2022-12-17T18:49:19.169Z,30.77
2022-12-17T18:51:47.653Z,30.57
2022-12-17T18:54:17.370Z,30.67
2022-12-17T18:57:01.729Z,32.43
2022-12-17T18:59:30.458Z,33.23
2022-12-17T19:01:57.650Z,35.53
2022-12-17T19:04:25.013Z,36.50
2022-12-17T19:06:53.320Z,36.37
2022-12-17T19:09:25.534Z,36.50
2022-12-17T19:11:53.465Z,35.43
2022-12-17T19:14:21.989Z,38.43
2022-12-17T19:16:52.965Z,38.77
2022-12-17T19:19:20.039Z,42.73
2022-12-17T19:21:46.394Z,40.03
2022-12-17T19:24:15.361Z,47.80
2022-12-17T19:26:42.492Z,44.63
2022-12-17T19:29:10.484Z,41.63
2022-12-17T19:31:37.601Z,43.90
2022-12-17T19:34:06.841Z,42.67
2022-12-17T19:36:35.818Z,41.80
2022-12-17T19:39:06.039Z,46.60
2022-12-17T19:41:32.805Z,48.10
2022-12-17T19:44:02.091Z,47.67
2022-12-17T19:46:30.476Z,46.90
2022-12-17T19:48:57.362Z,49.80
2022-12-17T19:51:27.521Z,49.37
2022-12-17T19:53:54.857Z,47.67
2022-12-17T19:56:29.701Z,47.00
2022-12-17T19:59:00.714Z,48.80
2022-12-17T20:01:30.309Z,46.43
2022-12-17T20:03:57.376Z,50.67
2022-12-17T20:06:27.500Z,48.30
2022-12-17T20:08:54.080Z,47.10
2022-12-17T20:11:33.271Z,48.80
2022-12-17T20:14:12.990Z,46.50
2022-12-17T20:16:42.059Z,45.90
2022-12-17T20:19:11.982Z,49.73
2022-12-17T20:21:38.822Z,48.97
2022-12-17T20:24:06.020Z,45.17
2022-12-17T20:26:32.480Z,53.10
2022-12-17T20:28:59.237Z,49.73
2022-12-17T20:31:27.024Z,48.23
2022-12-17T20:33:53.433Z,49.23
2022-12-17T20:36:21.386Z,47.90
2022-12-17T20:38:47.771Z,49.03
2022-12-17T20:41:20.420Z,48.30
2022-12-17T20:43:47.783Z,48.40
2022-12-17T20:46:14.652Z,50.57
2022-12-17T20:48:43.374Z,47.43
2022-12-17T20:51:20.843Z,47.77
2022-12-17T20:53:47.697Z,47.43
2022-12-17T20:56:18.236Z,48.90
2022-12-17T20:58:45.433Z,49.13
2022-12-17T21:01:18.440Z,48.90
2022-12-17T21:03:45.791Z,46.30
2022-12-17T21:06:14.951Z,50.07
2022-12-17T21:08:49.166Z,49.77
2022-12-17T21:11:18.229Z,50.80
2022-12-17T21:13:44.811Z,46.07
2022-12-17T21:16:23.126Z,48.23
2022-12-17T21:18:49.548Z,47.20
2022-12-17T21:21:19.859Z,49.03
2022-12-17T21:23:47.444Z,47.50
2022-12-17T21:26:22.538Z,46.97
2022-12-17T21:28:51.560Z,45.90
2022-12-17T21:31:36.250Z,47.17
2022-12-17T21:34:04.772Z,47.53
2022-12-17T21:36:33.670Z,46.73
2022-12-17T21:39:00.741Z,51.53
2022-12-17T21:41:32.263Z,49.67
2022-12-17T21:44:00.762Z,49.40
2022-12-17T21:46:28.827Z,49.53
2022-12-17T21:48:57.633Z,50.33
2022-12-17T21:51:24.713Z,50.47
2022-12-17T21:53:56.283Z,51.50
2022-12-17T21:56:23.359Z,51.13
2022-12-17T21:58:50.476Z,47.90
2022-12-17T22:01:24.887Z,50.00
2022-12-17T22:03:53.880Z,50.87
2022-12-17T22:06:25.809Z,51.67
2022-12-17T22:09:04.169Z,51.47
2022-12-17T22:11:36.414Z,50.73
2022-12-17T22:14:08.248Z,48.57
2022-12-17T22:16:41.994Z,50.53
2022-12-17T22:19:10.507Z,52.30
2022-12-17T22:21:39.140Z,50.77
2022-12-17T22:24:06.695Z,51.13
2022-12-17T22:26:36.723Z,49.10
2022-12-17T22:29:03.422Z,51.00
2022-12-17T22:31:48.529Z,48.87
2022-12-17T22:35:25.024Z,49.13
2022-12-17T22:38:21.582Z,49.63
2022-12-17T22:44:31.381Z,48.57
2022-12-17T22:44:41.150Z,47.47
2022-12-17T22:45:40.704Z,47.47
2022-12-17T22:48:12.597Z,48.73
2022-12-17T22:50:43.108Z,50.27
2022-12-17T22:53:26.137Z,48.43
2022-12-17T22:55:52.731Z,52.90
2022-12-17T22:58:20.064Z,49.83
2022-12-17T23:00:46.454Z,49.80
2022-12-17T23:03:12.917Z,47.93
2022-12-17T23:05:39.360Z,49.30
2022-12-17T23:08:05.866Z,49.90
2022-12-17T23:10:32.283Z,48.57
2022-12-17T23:12:58.720Z,47.93
2022-12-17T23:15:32.975Z,47.70
2022-12-17T23:18:01.354Z,49.57
2022-12-17T23:20:30.136Z,49.60
2022-12-17T23:22:56.858Z,49.77
2022-12-17T23:25:23.935Z,47.73
2022-12-17T23:27:51.083Z,43.90
2022-12-17T23:30:18.735Z,46.17
2022-12-17T23:32:45.556Z,46.93
2022-12-17T23:35:12.351Z,45.77
2022-12-17T23:37:40.328Z,47.33
2022-12-17T23:40:11.389Z,44.53
2022-12-17T23:42:38.131Z,45.03
2022-12-17T23:45:05.970Z,47.57
2022-12-17T23:47:32.362Z,47.57
2022-12-17T23:49:58.930Z,47.03
2022-12-17T23:52:25.325Z,46.13
2022-12-17T23:54:51.725Z,46.47
2022-12-17T23:57:18.040Z,48.00
2022-12-17T23:59:44.410Z,50.20
